createdAt,value
2018-12-20T00:00:47.494Z,101204.94
2018-12-20T00:03:15.126Z,101202.38
2018-12-20T00:05:42.844Z,101206.72
2018-12-20T00:08:10.465Z,101211.47
2018-12-20T00:10:38.239Z,101204.90
2018-12-20T00:13:06.159Z,101199.64
2018-12-20T00:15:33.964Z,101199.15
2018-12-20T00:18:01.566Z,101195.30
2018-12-20T00:20:29.224Z,101199.27
2018-12-20T00:22:56.792Z,101200.14
2018-12-20T00:25:24.375Z,101194.44
2018-12-20T00:27:52.118Z,101193.14
2018-12-20T00:30:19.875Z,101195.81
2018-12-20T00:32:47.520Z,101193.65
2018-12-20T00:35:15.123Z,101200.20
2018-12-20T00:37:42.859Z,101197.58
2018-12-20T00:40:10.672Z,101192.71
2018-12-20T00:42:38.382Z,101193.10
2018-12-20T00:45:06.072Z,101195.72
2018-12-20T00:47:33.664Z,101192.28
2018-12-20T00:50:01.465Z,101202.22
2018-12-20T00:52:29.143Z,101196.91
2018-12-20T00:54:56.685Z,101201.67
2018-12-20T00:57:24.272Z,101202.16
2018-12-20T00:59:51.862Z,101197.80
2018-12-20T01:02:19.740Z,101197.73
2018-12-20T01:04:47.409Z,101196.37
2018-12-20T01:07:14.998Z,101198.15
2018-12-20T01:09:42.673Z,101197.27
2018-12-20T01:12:10.434Z,101198.99
2018-12-20T01:14:45.164Z,101201.23
2018-12-20T01:17:07.836Z,101198.21
2018-12-20T01:19:35.394Z,101196.05
2018-12-20T01:22:02.977Z,101199.52
2018-12-20T01:24:30.985Z,101200.42
2018-12-20T01:26:58.710Z,101202.22
2018-12-20T01:29:26.396Z,101203.06
2018-12-20T01:31:54.299Z,101207.88
2018-12-20T01:34:22.060Z,101211.32
2018-12-20T01:36:49.734Z,101206.98
2018-12-20T01:39:17.384Z,101204.36
2018-12-20T01:41:45.150Z,101202.63
2018-12-20T01:44:12.906Z,101207.47
2018-12-20T01:46:40.683Z,101206.59
2018-12-20T01:49:08.383Z,101207.00
2018-12-20T01:51:36.138Z,101207.47
2018-12-20T01:54:03.783Z,101207.88
2018-12-20T01:56:31.618Z,101209.62
2018-12-20T01:58:59.391Z,101208.80
2018-12-20T02:01:27.542Z,101209.25
2018-12-20T02:03:55.335Z,101207.95
2018-12-20T02:06:22.982Z,101210.55
2018-12-20T02:08:50.740Z,101211.00
2018-12-20T02:11:18.463Z,101214.02
2018-12-20T02:13:46.215Z,101216.16
2018-12-20T02:16:13.835Z,101208.33
2018-12-20T02:18:41.523Z,101208.30
2018-12-20T02:21:09.223Z,101206.61
2018-12-20T02:23:36.887Z,101207.00
2018-12-20T02:26:04.450Z,101203.16
2018-12-20T02:28:32.089Z,101206.63
2018-12-20T02:30:59.632Z,101203.14
2018-12-20T02:33:27.233Z,101204.08
2018-12-20T02:35:54.908Z,101194.91
2018-12-20T02:38:22.568Z,101196.27
2018-12-20T02:40:50.304Z,101202.41
2018-12-20T02:43:17.891Z,101193.23
2018-12-20T02:45:45.635Z,101192.77
2018-12-20T02:48:13.431Z,101195.87
2018-12-20T02:50:41.389Z,101200.22
2018-12-20T02:53:09.237Z,101199.37
2018-12-20T02:55:36.974Z,101197.60
2018-12-20T02:58:04.601Z,101189.34
2018-12-20T03:00:32.458Z,101185.35
2018-12-20T03:03:00.180Z,101176.10
2018-12-20T03:05:27.987Z,101188.34
2018-12-20T03:07:55.894Z,101180.41
2018-12-20T03:10:23.815Z,101180.39
2018-12-20T03:12:51.546Z,101181.28
2018-12-20T03:15:20.167Z,101180.91
2018-12-20T03:17:48.211Z,101170.84
2018-12-20T03:20:15.770Z,101177.35
2018-12-20T03:22:43.420Z,101177.39
2018-12-20T03:25:11.306Z,101184.80
2018-12-20T03:27:39.111Z,101181.80
2018-12-20T03:30:06.784Z,101181.83
2018-12-20T03:32:34.487Z,101183.65
2018-12-20T03:35:02.417Z,101182.80
2018-12-20T03:37:30.223Z,101177.55
2018-12-20T03:39:57.997Z,101178.05
2018-12-20T03:42:25.580Z,101179.78
2018-12-20T03:44:53.276Z,101179.39
2018-12-20T03:47:20.848Z,101179.39
2018-12-20T03:49:48.486Z,101186.31
2018-12-20T03:52:16.241Z,101181.08
2018-12-20T03:54:43.968Z,101181.95
2018-12-20T03:57:11.636Z,101182.41
2018-12-20T03:59:39.400Z,101185.49
2018-12-20T04:02:06.983Z,101183.32
2018-12-20T04:04:34.546Z,101183.30
2018-12-20T04:07:02.447Z,101178.56
2018-12-20T04:09:30.014Z,101180.80
2018-12-20T04:11:57.542Z,101179.48
2018-12-20T04:14:25.134Z,101175.05
2018-12-20T04:16:52.732Z,101168.52
2018-12-20T04:19:20.570Z,101166.77
2018-12-20T04:21:48.232Z,101163.23
2018-12-20T04:24:16.074Z,101163.61
2018-12-20T04:26:43.736Z,101167.55
2018-12-20T04:29:11.430Z,101160.23
2018-12-20T04:31:39.109Z,101164.60
2018-12-20T04:34:06.891Z,101164.17
2018-12-20T04:36:41.148Z,101163.69
2018-12-20T04:39:08.674Z,101167.55
2018-12-20T04:41:36.534Z,101164.45
2018-12-20T04:44:04.430Z,101164.02
2018-12-20T04:46:32.160Z,101160.88
2018-12-20T04:49:00.083Z,101154.74
2018-12-20T04:51:27.897Z,101154.31
2018-12-20T04:53:56.525Z,101157.84
2018-12-20T04:56:24.281Z,101164.80
2018-12-20T04:58:52.633Z,101158.63
2018-12-20T05:01:20.482Z,101150.38
2018-12-20T05:03:48.271Z,101157.84
2018-12-20T05:06:16.208Z,101156.52
2018-12-20T05:08:44.656Z,101155.66
2018-12-20T05:11:12.714Z,101150.42
2018-12-20T05:13:40.531Z,101154.42
2018-12-20T05:16:08.223Z,101158.30
2018-12-20T05:18:35.931Z,101156.97
2018-12-20T05:21:03.518Z,101163.88
2018-12-20T05:23:31.088Z,101158.63
2018-12-20T05:25:58.755Z,101160.36
2018-12-20T05:28:26.334Z,101162.94
2018-12-20T05:30:54.165Z,101155.98
2018-12-20T05:33:22.563Z,101159.51
2018-12-20T05:35:50.601Z,101156.91
2018-12-20T05:38:18.244Z,101160.88
2018-12-20T05:40:46.039Z,101165.20
2018-12-20T05:43:13.973Z,101163.91
2018-12-20T05:45:41.649Z,101157.81
2018-12-20T05:48:09.340Z,101159.12
2018-12-20T05:50:37.028Z,101159.06
2018-12-20T05:53:04.595Z,101163.37
2018-12-20T05:55:32.185Z,101157.69
2018-12-20T05:57:59.966Z,101160.75
2018-12-20T06:00:27.808Z,101161.21
2018-12-20T06:02:55.587Z,101160.33
2018-12-20T06:05:23.397Z,101158.61
2018-12-20T06:07:51.046Z,101155.59
2018-12-20T06:10:18.709Z,101160.43
2018-12-20T06:12:46.515Z,101157.81
2018-12-20T06:15:14.106Z,101161.30
2018-12-20T06:17:41.846Z,101156.50
2018-12-20T06:20:09.389Z,101154.77
2018-12-20T06:22:37.112Z,101157.87
2018-12-20T06:25:05.004Z,101156.95
2018-12-20T06:27:32.580Z,101164.42
2018-12-20T06:30:00.178Z,101162.28
2018-12-20T06:32:27.707Z,101163.91
2018-12-20T06:34:55.302Z,101164.81
2018-12-20T06:37:23.746Z,101158.77
2018-12-20T06:39:51.329Z,101165.75
2018-12-20T06:42:18.906Z,101156.17
2018-12-20T06:44:46.504Z,101160.58
2018-12-20T06:47:14.060Z,101159.32
2018-12-20T06:49:41.667Z,101160.22
2018-12-20T06:52:09.381Z,101164.50
2018-12-20T06:54:36.961Z,101158.77
2018-12-20T06:57:04.607Z,101159.20
2018-12-20T06:59:32.604Z,101159.27
2018-12-20T07:02:00.622Z,101158.80
2018-12-20T07:04:29.811Z,101161.37
2018-12-20T07:06:57.471Z,101159.00
2018-12-20T07:09:25.129Z,101158.43
2018-12-20T07:11:52.679Z,101160.52
2018-12-20T07:14:20.366Z,101162.20
2018-12-20T07:16:47.964Z,101169.19
2018-12-20T07:19:15.561Z,101167.98
2018-12-20T07:21:43.088Z,101171.91
2018-12-20T07:24:10.691Z,101171.97
2018-12-20T07:26:38.241Z,101165.92
2018-12-20T07:29:05.919Z,101167.23
2018-12-20T07:31:33.505Z,101168.98
2018-12-20T07:34:01.079Z,101167.26
2018-12-20T07:36:28.662Z,101168.61
2018-12-20T07:38:56.294Z,101172.11
2018-12-20T07:41:23.863Z,101176.08
2018-12-20T07:43:51.455Z,101171.33
2018-12-20T07:46:19.176Z,101175.27
2018-12-20T07:48:46.853Z,101176.57
2018-12-20T07:51:14.491Z,101177.88
2018-12-20T07:53:42.053Z,101178.70
2018-12-20T07:56:09.662Z,101183.13
2018-12-20T07:58:37.217Z,101183.53
2018-12-20T08:01:04.877Z,101184.44
2018-12-20T08:03:32.489Z,101183.56
2018-12-20T08:06:02.499Z,101182.71
2018-12-20T08:08:30.232Z,101183.53
2018-12-20T08:10:57.834Z,101182.19
2018-12-20T08:13:30.519Z,101182.16
2018-12-20T08:16:02.224Z,101177.31
2018-12-20T08:18:30.726Z,101171.67
2018-12-20T08:20:59.790Z,101176.86
2018-12-20T08:23:28.244Z,101177.77
2018-12-20T08:25:57.625Z,101176.02
2018-12-20T08:28:25.988Z,101177.72
2018-12-20T08:30:54.379Z,101182.92
2018-12-20T08:33:22.106Z,101180.72
2018-12-20T08:35:49.714Z,101178.99
2018-12-20T08:38:17.494Z,101186.41
2018-12-20T08:40:45.063Z,101189.03
2018-12-20T08:43:12.709Z,101183.87
2018-12-20T08:45:40.360Z,101185.98
2018-12-20T08:48:07.978Z,101190.81
2018-12-20T08:50:35.680Z,101185.59
2018-12-20T08:53:03.268Z,101191.73
2018-12-20T08:55:30.875Z,101190.86
2018-12-20T08:57:58.916Z,101194.28
2018-12-20T09:00:26.547Z,101193.45
2018-12-20T09:02:54.118Z,101200.83
2018-12-20T09:05:21.704Z,101191.64
2018-12-20T09:07:49.310Z,101194.23
2018-12-20T09:10:16.931Z,101199.50
2018-12-20T09:12:44.544Z,101193.86
2018-12-20T09:15:12.181Z,101205.22
2018-12-20T09:17:39.917Z,101195.98
2018-12-20T09:20:08.155Z,101196.88
2018-12-20T09:22:35.799Z,101203.41
2018-12-20T09:25:03.411Z,101202.52
2018-12-20T09:27:31.001Z,101205.12
2018-12-20T09:29:58.627Z,101205.55
2018-12-20T09:32:26.166Z,101209.07
2018-12-20T09:34:53.748Z,101206.41
2018-12-20T09:37:25.517Z,101209.83
2018-12-20T09:39:53.167Z,101203.66
2018-12-20T09:42:20.811Z,101200.63
2018-12-20T09:44:48.442Z,101199.71
2018-12-20T09:47:21.634Z,101201.48
2018-12-20T09:49:49.396Z,101204.95
2018-12-20T09:52:17.159Z,101204.52
2018-12-20T09:54:49.506Z,101203.63
2018-12-20T09:57:20.248Z,101207.14
2018-12-20T09:59:47.903Z,101203.58
2018-12-20T10:02:15.581Z,101197.48
2018-12-20T10:04:43.212Z,101192.68
2018-12-20T10:07:10.868Z,101188.69
2018-12-20T10:09:38.529Z,101190.45
2018-12-20T10:12:06.199Z,101180.82
2018-12-20T10:17:35.640Z,101181.28
2018-12-20T10:20:03.366Z,101182.19
2018-12-20T10:22:30.989Z,101176.52
2018-12-20T10:24:58.575Z,101180.05
2018-12-20T10:27:31.384Z,101177.44
2018-12-20T10:29:55.899Z,101182.69
2018-12-20T10:32:23.481Z,101177.42
2018-12-20T10:34:51.117Z,101173.90
2018-12-20T10:37:18.711Z,101167.77
2018-12-20T10:39:46.362Z,101163.34
2018-12-20T10:42:14.228Z,101165.06
2018-12-20T10:44:41.875Z,101164.16
2018-12-20T10:47:15.047Z,101160.19
2018-12-20T10:49:42.874Z,101165.02
2018-12-20T10:52:10.460Z,101158.09
2018-12-20T10:54:38.112Z,101160.67
2018-12-20T10:57:05.693Z,101157.56
2018-12-20T10:59:33.341Z,101156.22
2018-12-20T11:02:06.464Z,101151.86
2018-12-20T11:04:39.716Z,101152.29
2018-12-20T11:07:21.241Z,101147.43
2018-12-20T11:09:54.918Z,101146.55
2018-12-20T11:12:30.836Z,101141.75
2018-12-20T11:14:58.451Z,101138.25
2018-12-20T11:17:28.139Z,101133.91
2018-12-20T11:19:55.710Z,101133.91
2018-12-20T11:22:23.487Z,101130.41
2018-12-20T11:24:51.074Z,101127.78
2018-12-20T11:27:18.913Z,101123.80
2018-12-20T11:29:47.843Z,101129.45
2018-12-20T11:32:15.525Z,101126.78
2018-12-20T11:34:43.120Z,101124.95
2018-12-20T11:37:10.760Z,101128.45
2018-12-20T11:39:38.411Z,101121.02
2018-12-20T11:42:06.103Z,101121.52
2018-12-20T11:44:33.886Z,101124.55
2018-12-20T11:47:01.549Z,101128.45
2018-12-20T11:49:29.272Z,101119.30
2018-12-20T11:51:56.925Z,101117.94
2018-12-20T11:54:24.550Z,101109.58
2018-12-20T11:56:52.374Z,101108.67
2018-12-20T11:59:20.159Z,101107.74
2018-12-20T12:01:47.756Z,101108.59
2018-12-20T12:04:15.425Z,101105.59
2018-12-20T12:06:43.089Z,101107.34
2018-12-20T12:09:10.811Z,101093.78
2018-12-20T12:11:38.418Z,101096.32
2018-12-20T12:14:06.219Z,101092.72
2018-12-20T12:16:33.799Z,101099.25
2018-12-20T12:19:01.422Z,101095.34
2018-12-20T12:21:29.138Z,101092.28
2018-12-20T12:23:56.714Z,101092.69
2018-12-20T12:26:24.325Z,101090.06
2018-12-20T12:28:54.475Z,101091.02
2018-12-20T12:31:22.106Z,101087.98
2018-12-20T12:33:49.914Z,101091.02
2018-12-20T12:36:17.631Z,101086.29
2018-12-20T12:38:45.858Z,101087.98
2018-12-20T12:41:13.489Z,101095.42
2018-12-20T12:43:41.268Z,101098.89
2018-12-20T12:46:08.948Z,101094.52
2018-12-20T12:48:41.055Z,101093.20
2018-12-20T12:51:08.774Z,101091.78
2018-12-20T12:53:36.559Z,101084.37
2018-12-20T12:56:04.158Z,101086.62
2018-12-20T12:58:31.755Z,101084.84
2018-12-20T13:00:59.437Z,101090.97
2018-12-20T13:03:27.089Z,101089.25
2018-12-20T13:05:54.745Z,101090.99
2018-12-20T13:08:22.413Z,101089.33
2018-12-20T13:10:50.037Z,101091.95
2018-12-20T13:13:17.601Z,101085.80
2018-12-20T13:15:45.173Z,101083.64
2018-12-20T13:18:13.759Z,101083.61
2018-12-20T13:20:41.858Z,101085.36
2018-12-20T13:23:09.539Z,101084.05
2018-12-20T13:25:37.169Z,101085.80
2018-12-20T13:28:04.776Z,101083.64
2018-12-20T13:30:32.380Z,101083.53
2018-12-20T13:32:59.987Z,101080.47
2018-12-20T13:35:27.609Z,101078.25
2018-12-20T13:37:55.207Z,101076.06
2018-12-20T13:40:22.847Z,101074.37
2018-12-20T13:42:50.371Z,101074.37
2018-12-20T13:45:17.931Z,101076.18
2018-12-20T13:47:45.644Z,101078.39
2018-12-20T13:50:51.048Z,101075.75
2018-12-20T13:53:19.287Z,101071.84
2018-12-20T13:55:47.225Z,101074.89
2018-12-20T13:58:14.869Z,101078.39
2018-12-20T14:00:42.511Z,101079.68
2018-12-20T14:03:10.249Z,101082.69
2018-12-20T14:05:37.796Z,101082.33
2018-12-20T14:08:05.480Z,101077.11
2018-12-20T14:10:33.081Z,101070.55
2018-12-20T14:13:00.633Z,101073.58
2018-12-20T14:15:28.371Z,101074.92
2018-12-20T14:17:56.804Z,101077.55
2018-12-20T14:20:25.266Z,101078.86
2018-12-20T14:22:52.945Z,101080.20
2018-12-20T14:25:20.605Z,101078.02
2018-12-20T14:27:48.345Z,101078.45
2018-12-20T14:30:15.921Z,101073.69
2018-12-20T14:32:43.495Z,101079.84
2018-12-20T14:35:11.158Z,101080.72
2018-12-20T14:37:38.802Z,101078.94
2018-12-20T14:40:08.283Z,101079.34
2018-12-20T14:42:37.747Z,101082.88
2018-12-20T14:45:05.968Z,101088.15
2018-12-20T14:47:33.883Z,101089.90
2018-12-20T14:50:11.973Z,101085.98
2018-12-20T14:52:39.530Z,101088.20
2018-12-20T14:55:08.569Z,101092.14
2018-12-20T14:57:36.123Z,101088.61
2018-12-20T15:00:04.485Z,101096.48
2018-12-20T15:02:34.729Z,101095.20
2018-12-20T15:05:02.343Z,101092.14
2018-12-20T15:07:29.927Z,101088.20
2018-12-20T15:09:57.735Z,101094.37
2018-12-20T15:12:25.282Z,101096.12
2018-12-20T15:14:52.880Z,101095.28
2018-12-20T15:17:20.573Z,101097.91
2018-12-20T15:19:48.172Z,101102.70
2018-12-20T15:22:15.743Z,101107.16
2018-12-20T15:24:43.286Z,101106.23
2018-12-20T15:27:10.894Z,101102.70
2018-12-20T15:29:38.460Z,101097.91
2018-12-20T15:32:06.057Z,101104.89
2018-12-20T15:34:33.703Z,101095.30
2018-12-20T15:37:01.324Z,101096.20
2018-12-20T15:39:29.052Z,101094.95
2018-12-20T15:41:56.611Z,101098.47
2018-12-20T15:44:24.180Z,101102.84
2018-12-20T15:46:51.902Z,101096.72
2018-12-20T15:49:19.492Z,101105.05
2018-12-20T15:51:47.066Z,101099.42
2018-12-20T15:54:14.683Z,101102.89
2018-12-20T15:56:42.293Z,101095.88
2018-12-20T15:59:09.890Z,101100.63
2018-12-20T16:01:37.499Z,101101.94
2018-12-20T16:04:05.125Z,101093.23
2018-12-20T16:06:32.773Z,101098.00
2018-12-20T16:09:00.361Z,101101.50
2018-12-20T16:11:27.970Z,101100.19
2018-12-20T16:13:55.722Z,101101.09
2018-12-20T16:16:23.323Z,101096.67
2018-12-20T16:18:50.916Z,101093.61
2018-12-20T16:21:18.498Z,101089.27
2018-12-20T16:23:46.111Z,101091.42
2018-12-20T16:26:13.758Z,101087.08
2018-12-20T16:28:41.410Z,101088.80
2018-12-20T16:31:08.954Z,101094.06
2018-12-20T16:33:36.785Z,101091.02
2018-12-20T16:36:04.391Z,101087.95
2018-12-20T16:38:32.391Z,101089.27
2018-12-20T16:41:00.155Z,101084.91
2018-12-20T16:43:29.688Z,101087.52
2018-12-20T16:45:57.266Z,101079.67
2018-12-20T16:48:24.865Z,101085.41
2018-12-20T16:50:54.281Z,101085.00
2018-12-20T16:53:21.876Z,101084.53
2018-12-20T16:55:50.388Z,101080.16
2018-12-20T16:58:18.121Z,101084.59
2018-12-20T17:00:47.692Z,101085.05
2018-12-20T17:03:15.404Z,101079.83
2018-12-20T17:05:42.988Z,101088.95
2018-12-20T17:08:10.677Z,101084.14
2018-12-20T17:10:38.339Z,101086.77
2018-12-20T17:13:06.029Z,101095.97
2018-12-20T17:15:33.661Z,101094.20
2018-12-20T17:18:01.271Z,101087.23
2018-12-20T17:20:28.836Z,101085.07
2018-12-20T17:22:56.460Z,101085.92
2018-12-20T17:25:24.045Z,101077.16
2018-12-20T17:27:51.674Z,101080.19
2018-12-20T17:30:19.367Z,101076.25
2018-12-20T17:32:47.015Z,101074.94
2018-12-20T17:35:14.683Z,101077.56
2018-12-20T17:37:42.283Z,101077.95
2018-12-20T17:40:10.930Z,101077.97
2018-12-20T17:42:38.599Z,101074.50
2018-12-20T17:45:07.318Z,101073.17
2018-12-20T17:47:35.035Z,101069.67
2018-12-20T17:50:02.738Z,101076.72
2018-12-20T17:52:30.336Z,101087.21
2018-12-20T17:54:58.086Z,101076.28
2018-12-20T17:57:25.671Z,101073.22
2018-12-20T17:59:53.267Z,101081.09
2018-12-20T18:02:20.945Z,101073.61
2018-12-20T18:04:48.549Z,101073.55
2018-12-20T18:07:16.234Z,101073.85
2018-12-20T18:09:44.264Z,101081.64
2018-12-20T18:12:12.002Z,101078.23
2018-12-20T18:14:39.710Z,101071.59
2018-12-20T18:17:07.383Z,101070.38
2018-12-20T18:19:39.051Z,101066.86
2018-12-20T18:22:05.076Z,101065.93
2018-12-20T18:24:32.701Z,101063.28
2018-12-20T18:27:00.263Z,101060.69
2018-12-20T18:29:27.894Z,101057.13
2018-12-20T18:31:55.498Z,101055.81
2018-12-20T18:34:23.183Z,101063.25
2018-12-20T18:36:51.431Z,101061.91
2018-12-20T18:39:19.037Z,101057.59
2018-12-20T18:41:46.675Z,101057.13
2018-12-20T18:44:15.108Z,101062.78
2018-12-20T18:46:43.816Z,101056.72
2018-12-20T18:49:11.364Z,101060.66
2018-12-20T18:51:39.015Z,101058.96
2018-12-20T18:54:06.651Z,101056.34
2018-12-20T18:56:34.279Z,101056.75
2018-12-20T18:59:01.884Z,101054.98
2018-12-20T19:01:29.519Z,101051.42
2018-12-20T19:03:57.274Z,101050.55
2018-12-20T19:06:24.873Z,101049.23
2018-12-20T19:08:52.480Z,101047.48
2018-12-20T19:11:20.104Z,101039.61
2018-12-20T19:13:47.761Z,101041.80
2018-12-20T19:16:15.371Z,101041.86
2018-12-20T19:18:42.957Z,101046.25
2018-12-20T19:21:10.689Z,101046.28
2018-12-20T19:23:38.426Z,101048.41
2018-12-20T19:26:06.150Z,101038.85
2018-12-20T19:28:33.720Z,101044.13
2018-12-20T19:31:01.329Z,101047.21
2018-12-20T19:33:28.946Z,101044.59
2018-12-20T19:35:56.567Z,101049.84
2018-12-20T19:38:24.176Z,101041.96
2018-12-20T19:40:51.782Z,101042.89
2018-12-20T19:43:19.400Z,101044.72
2018-12-20T19:45:47.077Z,101035.08
2018-12-20T19:48:14.689Z,101036.39
2018-12-20T19:50:42.303Z,101039.42
2018-12-20T19:53:10.059Z,101038.12
2018-12-20T19:55:37.648Z,101037.21
2018-12-20T19:58:06.127Z,101031.97
2018-12-20T20:00:33.827Z,101034.18
2018-12-20T20:03:01.421Z,101033.28
2018-12-20T20:05:29.194Z,101035.43
2018-12-20T20:07:56.848Z,101033.72
2018-12-20T20:10:24.520Z,101038.52
2018-12-20T20:12:52.168Z,101031.55
2018-12-20T20:15:19.792Z,101029.25
2018-12-20T20:17:47.356Z,101024.48
2018-12-20T20:20:14.988Z,101024.91
2018-12-20T20:22:42.661Z,101026.20
2018-12-20T20:25:10.280Z,101021.80
2018-12-20T20:27:37.857Z,101022.12
2018-12-20T20:30:09.084Z,101015.16
2018-12-20T20:32:36.678Z,101012.91
2018-12-20T20:35:04.775Z,101003.73
2018-12-20T20:37:32.453Z,101011.14
2018-12-20T20:40:00.031Z,101010.26
2018-12-20T20:42:27.614Z,101010.73
2018-12-20T20:44:55.227Z,101005.95
2018-12-20T20:47:23.201Z,101005.97
2018-12-20T20:49:50.821Z,101005.95
2018-12-20T20:52:18.586Z,101001.10
2018-12-20T20:54:46.285Z,101003.32
2018-12-20T20:57:13.961Z,101001.13
2018-12-20T20:59:41.545Z,100996.36
2018-12-20T21:02:09.145Z,100995.98
2018-12-20T21:04:36.814Z,101000.34
2018-12-20T21:07:04.448Z,100999.03
2018-12-20T21:09:32.109Z,101000.70
2018-12-20T21:12:00.213Z,101001.20
2018-12-20T21:14:27.858Z,100994.16
2018-12-20T21:16:55.479Z,100998.57
2018-12-20T21:19:23.117Z,101000.70
2018-12-20T21:21:51.085Z,100991.57
2018-12-20T21:24:18.736Z,100996.47
2018-12-20T21:26:46.343Z,100992.13
2018-12-20T21:29:13.985Z,100987.73
2018-12-20T21:31:41.645Z,100985.51
2018-12-20T21:34:09.295Z,100986.84
2018-12-20T21:36:37.140Z,100987.73
2018-12-20T21:39:05.614Z,100985.10
2018-12-20T21:41:33.232Z,100984.63
2018-12-20T21:44:00.880Z,100985.54
2018-12-20T21:46:28.437Z,100974.17
2018-12-20T21:48:56.278Z,100980.29
2018-12-20T21:51:23.880Z,100976.33
2018-12-20T21:53:54.973Z,100981.17
2018-12-20T21:56:22.069Z,100982.94
2018-12-20T21:58:49.663Z,100973.36
2018-12-20T22:01:17.585Z,100979.41
2018-12-20T22:03:45.298Z,100977.27
2018-12-20T22:06:12.999Z,100977.31
2018-12-20T22:08:40.601Z,100976.41
2018-12-20T22:11:09.264Z,100975.07
2018-12-20T22:13:36.870Z,100979.47
2018-12-20T22:16:04.521Z,100978.60
2018-12-20T22:18:32.113Z,100974.69
2018-12-20T22:20:59.699Z,100969.86
2018-12-20T22:23:27.390Z,100970.76
2018-12-20T22:25:54.994Z,100968.63
2018-12-20T22:28:22.565Z,100966.39
2018-12-20T22:30:50.216Z,100973.85
2018-12-20T22:33:17.809Z,100967.73
2018-12-20T22:35:45.395Z,100968.13
2018-12-20T22:38:13.135Z,100965.05
2018-12-20T22:40:40.753Z,100964.17
2018-12-20T22:43:08.355Z,100958.58
2018-12-20T22:45:36.015Z,100963.39
2018-12-20T22:48:03.646Z,100960.67
2018-12-20T22:50:31.226Z,100955.95
2018-12-20T22:52:58.896Z,100957.77
2018-12-20T22:55:26.494Z,100953.33
2018-12-20T22:57:54.070Z,100954.17
2018-12-20T23:00:21.791Z,100956.86
2018-12-20T23:02:49.365Z,100950.73
2018-12-20T23:05:16.994Z,100953.83
2018-12-20T23:07:44.621Z,100949.92
2018-12-20T23:10:12.171Z,100948.58
2018-12-20T23:12:39.904Z,100948.11
2018-12-20T23:15:07.496Z,100944.30
2018-12-20T23:17:35.087Z,100953.86
2018-12-20T23:20:02.738Z,100950.85
2018-12-20T23:22:30.330Z,100939.48
2018-12-20T23:24:57.925Z,100939.52
2018-12-20T23:27:25.533Z,100935.98
2018-12-20T23:29:53.174Z,100933.37
2018-12-20T23:32:20.848Z,100927.25
2018-12-20T23:34:48.460Z,100932.41
2018-12-20T23:37:16.167Z,100929.75
2018-12-20T23:39:43.787Z,100935.81
2018-12-20T23:42:11.418Z,100932.73
2018-12-20T23:44:39.168Z,100934.97
2018-12-20T23:47:06.755Z,100928.84
2018-12-20T23:49:34.301Z,100925.33
2018-12-20T23:52:01.995Z,100924.42
2018-12-20T23:54:29.571Z,100924.89
2018-12-20T23:56:57.947Z,100924.02
2018-12-20T23:59:25.704Z,100921.89
